Time;durP1;ratioP1;P1;durP2;ratioP2;P2;SDS_P1;SDS_P2;PMS_P1;PMS_P2;Temp;Humidity;BMP_temperature;BMP_pressure;BME280_temperature;BME280_humidity;BME280_pressure;Samples;Min_cycle;Max_cycle;Signal;HPM_P1;HPM_P2
2021/09/14 00:00:00;;;;;;;10.32;9.23;;;;;;;14.77;83.39;100899.88;697841;28;4452;-53
2021/09/14 00:00:21;;;;;;;10.00;9.00;;;;;;;14.78;81.86;100898.97;697717;28;3251;-52
2021/09/14 00:00:41;;;;;;;9.82;8.82;;;;;;;14.81;81.40;100895.41;697136;28;3692;-54
2021/09/14 00:01:02;;;;;;;10.53;8.90;;;;;;;14.82;81.23;100892.75;697922;28;1208;-52
2021/09/14 00:01:22;;;;;;;10.40;9.35;;;;;;;14.82;81.26;100897.16;698087;28;1071;-56
2021/09/14 00:01:43;;;;;;;10.52;9.50;;;;;;;14.80;81.65;100896.31;696283;28;1371;-56
2021/09/14 00:02:03;;;;;;;10.47;9.40;;;;;;;14.81;81.08;100896.31;697271;28;1364;-52
2021/09/14 00:02:24;;;;;;;10.73;9.70;;;;;;;14.81;81.65;100895.41;698224;28;1285;-53
2021/09/14 00:02:44;;;;;;;10.63;9.52;;;;;;;14.83;81.10;100893.66;696663;28;1106;-55
2021/09/14 00:03:04;;;;;;;10.47;9.47;;;;;;;14.85;80.99;100897.09;696700;28;4534;-56
2021/09/14 00:03:25;;;;;;;10.45;9.45;;;;;;;14.86;80.52;100896.22;696195;28;4075;-53
2021/09/14 00:03:45;;;;;;;10.77;9.70;;;;;;;14.85;82.51;100901.50;697475;28;1284;-57
2021/09/14 00:04:05;;;;;;;10.93;9.83;;;;;;;14.81;81.92;100890.16;697775;28;1278;-56
2021/09/14 00:04:26;;;;;;;10.30;9.30;;;;;;;14.82;81.23;100898.03;696659;28;1142;-55
2021/09/14 00:04:46;;;;;;;10.20;9.20;;;;;;;14.87;80.97;100895.31;695079;28;1910;-56
2021/09/14 00:05:07;;;;;;;10.43;9.43;;;;;;;14.87;81.42;100895.31;697344;28;1142;-52
2021/09/14 00:05:27;;;;;;;10.75;9.75;;;;;;;14.86;81.63;100895.34;697569;28;1002;-55
2021/09/14 00:05:48;;;;;;;10.67;9.57;;;;;;;14.83;81.44;100893.66;696772;28;1270;-53
2021/09/14 00:06:08;;;;;;;10.97;9.60;;;;;;;14.84;81.99;100894.50;697246;28;4641;-53
2021/09/14 00:06:29;;;;;;;12.00;9.70;;;;;;;14.81;81.58;100892.78;695961;28;4325;-54
2021/09/14 00:06:49;;;;;;;10.57;9.47;;;;;;;14.82;81.35;100889.28;697284;28;1073;-57
2021/09/14 00:07:10;;;;;;;11.05;9.95;;;;;;;14.82;81.72;100897.16;697509;28;1420;-56
2021/09/14 00:07:30;;;;;;;10.30;9.30;;;;;;;14.84;81.00;100897.13;697823;28;1091;-57
2021/09/14 00:07:50;;;;;;;11.15;9.38;;;;;;;14.84;81.96;100898.00;697420;28;1108;-53
2021/09/14 00:08:11;;;;;;;11.13;9.90;;;;;;;14.81;82.11;100891.03;697816;28;1031;-54
2021/09/14 00:08:31;;;;;;;10.70;9.57;;;;;;;14.80;81.40;100897.19;697812;28;944;-55
2021/09/14 00:08:51;;;;;;;10.93;9.60;;;;;;;14.82;81.06;100886.63;697781;28;1042;-54
2021/09/14 00:09:12;;;;;;;10.57;9.47;;;;;;;14.84;81.21;100895.34;696772;28;4615;-56
2021/09/14 00:09:32;;;;;;;10.10;9.10;;;;;;;14.86;80.80;100890.09;697464;28;1289;-56
2021/09/14 00:09:55;;;;;;;10.43;9.43;;;;;;;14.85;82.15;100891.84;697263;28;998;-55
2021/09/14 00:10:15;;;;;;;10.85;9.77;;;;;;;14.79;82.05;100892.81;697328;28;1137;-53
2021/09/14 00:10:36;;;;;;;10.63;9.53;;;;;;;14.79;81.77;100886.69;697248;28;1042;-54
2021/09/14 00:10:56;;;;;;;10.80;9.57;;;;;;;14.78;81.62;100890.22;698040;28;1187;-54
2021/09/14 00:11:16;;;;;;;10.20;9.20;;;;;;;14.77;82.33;100896.38;694821;28;1158;-54
2021/09/14 00:11:39;;;;;;;10.40;9.32;;;;;;;14.78;81.32;100895.47;695459;28;1075;-54
2021/09/14 00:11:59;;;;;;;9.90;8.88;;;;;;;14.81;80.95;100895.41;697155;28;5535;-55
2021/09/14 00:12:20;;;;;;;10.48;9.48;;;;;;;14.81;80.93;100891.03;697530;28;3260;-54
2021/09/14 00:12:40;;;;;;;10.87;9.77;;;;;;;14.79;82.53;100889.34;695763;28;1475;-55
2021/09/14 00:13:01;;;;;;;10.63;9.60;;;;;;;14.76;82.76;100887.63;697808;28;1214;-54
2021/09/14 00:13:21;;;;;;;10.77;9.67;;;;;;;14.74;82.14;100884.13;698013;28;1134;-54
2021/09/14 00:13:41;;;;;;;10.40;9.30;;;;;;;14.74;82.76;100891.19;697727;28;1339;-54
2021/09/14 00:14:03;;;;;;;11.67;9.70;;;;;;;14.72;82.20;100891.22;698032;28;1094;-52
2021/09/14 00:14:24;;;;;;;10.23;9.15;;;;;;;14.75;81.51;100887.66;698226;28;1062;-54
2021/09/14 00:14:44;;;;;;;10.50;9.50;;;;;;;14.74;84.42;100893.81;697773;28;1132;-54
2021/09/14 00:15:06;;;;;;;11.35;10.30;;;;;;;14.69;83.48;100895.63;697052;28;4792;-54
2021/09/14 00:15:27;;;;;;;11.00;9.90;;;;;;;14.66;82.86;100888.66;697326;28;1217;-56
2021/09/14 00:15:47;;;;;;;10.70;9.70;;;;;;;14.65;82.16;100892.22;697363;28;1146;-55
2021/09/14 00:16:07;;;;;;;10.33;9.20;;;;;;;14.68;81.82;100888.66;697812;28;1091;-57
2021/09/14 00:16:28;;;;;;;10.43;9.30;;;;;;;14.68;83.36;100888.66;697839;28;1070;-52
2021/09/14 00:16:48;;;;;;;10.90;9.52;;;;;;;14.61;83.14;100888.72;697298;28;1257;-55
2021/09/14 00:17:09;;;;;;;11.23;9.97;;;;;;;14.59;83.33;100885.28;695237;28;996;-55
2021/09/14 00:17:29;;;;;;;10.77;9.77;;;;;;;14.60;82.74;100887.00;695161;28;1076;-55
2021/09/14 00:17:49;;;;;;;10.03;9.03;;;;;;;14.64;82.21;100890.47;694990;28;1085;-54
2021/09/14 00:18:10;;;;;;;10.40;9.40;;;;;;;14.65;83.13;100884.31;695900;28;4325;-52
2021/09/14 00:18:30;;;;;;;11.23;9.60;;;;;;;14.67;83.30;100885.16;697058;28;1255;-53
2021/09/14 00:18:51;;;;;;;11.17;9.50;;;;;;;14.65;83.47;100884.31;697194;28;889;-55
2021/09/14 00:19:15;;;;;;;10.43;9.30;;;;;;;14.66;83.07;100893.06;698349;28;947;-56
2021/09/14 00:19:35;;;;;;;10.00;9.00;;;;;;;14.68;82.42;100888.66;697504;28;1185;-54
2021/09/14 00:19:55;;;;;;;10.97;9.80;;;;;;;14.64;83.26;100887.84;698197;28;1158;-55
2021/09/14 00:20:16;;;;;;;11.20;9.80;;;;;;;14.60;82.46;100886.13;698317;28;1047;-55
2021/09/14 00:20:36;;;;;;;10.23;9.13;;;;;;;14.62;82.71;100886.94;697707;28;1121;-56
2021/09/14 00:20:56;;;;;;;10.48;9.48;;;;;;;14.58;82.70;100887.91;697304;28;4568;-55
2021/09/14 00:21:18;;;;;;;11.07;9.97;;;;;;;14.58;82.96;100888.78;697588;28;3532;-55
2021/09/14 00:21:39;;;;;;;10.93;9.80;;;;;;;14.60;82.38;100883.50;697461;28;1372;-63
2021/09/14 00:21:59;;;;;;;10.57;9.43;;;;;;;14.61;83.59;100888.72;698053;28;1040;-54
2021/09/14 00:22:20;;;;;;;11.10;9.73;;;;;;;14.61;82.92;100883.47;697461;28;1092;-56
2021/09/14 00:22:40;;;;;;;10.68;9.63;;;;;;;14.65;82.14;100886.97;695266;28;1144;-55
2021/09/14 00:23:02;;;;;;;10.40;9.40;;;;;;;14.64;83.09;100887.84;695314;28;1083;-53
2021/09/14 00:23:23;;;;;;;11.18;10.07;;;;;;;14.61;83.12;100890.50;693326;28;1494;-56
2021/09/14 00:23:43;;;;;;;10.13;9.13;;;;;;;14.62;82.30;100890.50;691960;28;1171;-53
2021/09/14 00:24:04;;;;;;;10.00;9.00;;;;;;;14.64;83.17;100887.84;692436;28;4710;-54
2021/09/14 00:24:24;;;;;;;10.55;9.52;;;;;;;14.65;82.32;100892.22;693902;28;1628;-53
2021/09/14 00:24:45;;;;;;;10.07;9.13;;;;;;;14.68;81.99;100886.03;693688;28;1973;-56
2021/09/14 00:25:05;;;;;;;10.50;9.50;;;;;;;14.68;83.48;100883.41;695209;28;1202;-52
2021/09/14 00:25:26;;;;;;;10.43;9.48;;;;;;;14.64;82.94;100890.47;693257;28;1151;-51
2021/09/14 00:25:46;;;;;;;10.35;9.35;;;;;;;14.66;82.23;100885.19;692654;28;1141;-55
2021/09/14 00:26:06;;;;;;;10.40;9.40;;;;;;;14.68;82.91;100886.91;693488;28;1056;-55
2021/09/14 00:26:27;;;;;;;11.30;9.97;;;;;;;14.61;83.16;100879.97;694905;28;1088;-56
2021/09/14 00:26:47;;;;;;;11.18;9.88;;;;;;;14.54;83.15;100884.47;692468;28;3363;-53
2021/09/14 00:27:07;;;;;;;12.30;9.90;;;;;;;14.47;83.06;100885.50;695608;28;4552;-56
2021/09/14 00:27:28;;;;;;;12.25;10.02;;;;;;;14.40;83.19;100883.84;697839;28;1100;-52
2021/09/14 00:27:48;;;;;;;11.77;10.17;;;;;;;14.40;82.89;100886.47;697085;28;1509;-55
2021/09/14 00:28:09;;;;;;;10.20;9.20;;;;;;;14.45;82.99;100876.75;697682;28;1174;-54
2021/09/14 00:28:29;;;;;;;11.00;9.90;;;;;;;14.47;83.20;100888.13;695317;28;1313;-56
2021/09/14 00:28:49;;;;;;;11.17;9.97;;;;;;;14.47;84.26;100882.84;691987;28;1585;-57
2021/09/14 00:29:10;;;;;;;10.88;9.85;;;;;;;14.47;83.53;100882.84;692424;28;1160;-53
2021/09/14 00:29:30;;;;;;;10.10;9.20;;;;;;;14.52;82.66;100878.34;692452;28;1171;-56
2021/09/14 00:29:50;;;;;;;10.45;9.45;;;;;;;14.54;83.53;100887.13;691760;28;3932;-53
2021/09/14 00:30:12;;;;;;;11.17;10.03;;;;;;;14.47;83.87;100886.34;691054;28;4868;-52
2021/09/14 00:30:33;;;;;;;11.70;10.50;;;;;;;14.45;83.07;100876.75;694833;28;1199;-55
2021/09/14 00:30:53;;;;;;;10.63;9.55;;;;;;;14.50;82.54;100881.94;695565;28;2685;-54
2021/09/14 00:31:14;;;;;;;10.47;9.27;;;;;;;14.53;82.01;100876.63;695913;28;1076;-52
2021/09/14 00:31:34;;;;;;;10.97;9.87;;;;;;;14.53;84.20;100879.25;696484;28;873;-52
2021/09/14 00:31:55;;;;;;;10.93;9.80;;;;;;;14.51;82.92;100875.75;695959;28;1272;-56
2021/09/14 00:32:15;;;;;;;11.10;9.60;;;;;;;14.55;83.11;100880.06;695618;28;1262;-53
2021/09/14 00:32:36;;;;;;;11.13;9.93;;;;;;;14.53;83.40;100874.00;695093;28;1110;-53
2021/09/14 00:32:56;;;;;;;11.10;9.90;;;;;;;14.45;83.19;100877.63;696526;28;3494;-54
2021/09/14 00:33:19;;;;;;;10.90;9.80;;;;;;;14.41;83.44;100881.22;695826;28;4330;-53
2021/09/14 00:33:39;;;;;;;11.23;10.07;;;;;;;14.39;83.50;100882.13;690413;28;2140;-56
2021/09/14 00:33:59;;;;;;;11.00;9.90;;;;;;;14.41;82.83;100880.31;691212;28;1089;-56
2021/09/14 00:34:20;;;;;;;10.68;9.57;;;;;;;14.44;83.32;100881.16;694474;28;1143;-53
2021/09/14 00:34:40;;;;;;;11.33;10.17;;;;;;;14.44;84.68;100882.88;694458;28;1115;-54
2021/09/14 00:35:01;;;;;;;11.60;10.40;;;;;;;14.38;83.62;100881.22;692232;28;1259;-53
2021/09/14 00:35:21;;;;;;;11.30;10.10;;;;;;;14.40;83.23;100883.84;692939;28;1206;-56
2021/09/14 00:35:41;;;;;;;10.37;9.27;;;;;;;14.43;83.64;100875.91;695832;28;3196;-53
2021/09/14 00:36:02;;;;;;;10.68;9.55;;;;;;;14.46;83.87;100873.22;693447;28;4659;-55
2021/09/14 00:36:22;;;;;;;11.03;9.70;;;;;;;14.46;83.53;100878.47;694706;28;1217;-54
2021/09/14 00:36:43;;;;;;;10.60;9.48;;;;;;;14.48;83.73;100881.94;694620;28;1311;-52
2021/09/14 00:37:04;;;;;;;10.40;9.33;;;;;;;14.45;83.49;100874.09;695233;28;940;-55
2021/09/14 00:37:24;;;;;;;11.13;9.68;;;;;;;14.49;82.64;100881.06;697963;28;1428;-57
2021/09/14 00:37:45;;;;;;;10.50;9.40;;;;;;;14.50;83.40;100880.16;697230;28;1242;-54
2021/09/14 00:38:05;;;;;;;10.27;9.27;;;;;;;14.41;83.73;100875.94;695184;28;1374;-53
2021/09/14 00:38:25;;;;;;;10.45;9.35;;;;;;;14.39;83.40;100874.22;697254;28;3751;-53
2021/09/14 00:38:47;;;;;;;10.23;9.23;;;;;;;14.44;82.80;100872.38;696606;28;3103;-57
2021/09/14 00:39:07;;;;;;;10.20;9.20;;;;;;;14.46;83.60;100873.22;695768;28;4866;-53
2021/09/14 00:39:27;;;;;;;10.80;9.70;;;;;;;14.41;83.17;100869.78;697305;28;1319;-53
2021/09/14 00:39:48;;;;;;;10.50;9.40;;;;;;;14.47;83.72;100869.72;697066;28;1616;-57
2021/09/14 00:40:10;;;;;;;11.13;9.93;;;;;;;14.42;83.66;100876.78;699652;28;1098;-56
2021/09/14 00:40:30;;;;;;;10.45;9.38;;;;;;;14.42;83.10;100868.91;697739;28;1134;-56
2021/09/14 00:40:51;;;;;;;10.57;9.47;;;;;;;14.44;83.15;100869.72;696096;28;1303;-52
2021/09/14 00:41:11;;;;;;;11.07;9.97;;;;;;;14.47;82.76;100869.72;697635;28;1327;-56
2021/09/14 00:41:32;;;;;;;10.68;9.57;;;;;;;14.44;83.32;100870.63;695254;28;1164;-55
2021/09/14 00:41:52;;;;;;;10.98;9.88;;;;;;;14.39;83.31;100871.59;693954;28;3330;-55
2021/09/14 00:42:12;;;;;;;10.73;9.63;;;;;;;14.37;83.41;100870.75;696618;28;4411;-55
2021/09/14 00:42:34;;;;;;;10.17;9.17;;;;;;;14.41;82.97;100867.16;697632;28;1316;-55
2021/09/14 00:42:54;;;;;;;9.85;8.90;;;;;;;14.46;82.72;100867.97;698797;28;1488;-57
2021/09/14 00:43:21;;;;;;;9.83;8.93;;;;;;;14.46;83.69;100871.44;700144;28;1249;-52
2021/09/14 00:43:42;;;;;;;10.77;9.68;;;;;;;14.42;83.99;100874.16;700005;28;1110;-58
2021/09/14 00:44:03;;;;;;;10.70;9.63;;;;;;;14.40;84.44;100873.31;699540;28;1240;-55
2021/09/14 00:44:23;;;;;;;10.90;9.80;;;;;;;14.41;83.22;100870.69;697712;28;1238;-54
2021/09/14 00:44:44;;;;;;;10.65;9.65;;;;;;;14.47;82.62;100873.19;696265;28;3547;-55
2021/09/14 00:45:05;;;;;;;10.73;9.63;;;;;;;14.51;82.32;100871.38;696367;28;4728;-56
2021/09/14 00:45:26;;;;;;;10.98;9.52;;;;;;;14.56;82.18;100868.66;697538;28;1253;-54
2021/09/14 00:45:47;;;;;;;10.43;9.43;;;;;;;14.55;83.08;100870.44;696426;28;1261;-54
2021/09/14 00:46:08;;;;;;;11.15;10.05;;;;;;;14.52;83.56;100872.25;695344;28;1248;-52
2021/09/14 00:46:29;;;;;;;10.73;9.73;;;;;;;14.47;83.54;100865.31;695551;28;1548;-53
2021/09/14 00:46:50;;;;;;;10.70;9.60;;;;;;;14.47;83.09;100867.06;697232;28;1153;-55
2021/09/14 00:47:10;;;;;;;11.03;9.87;;;;;;;14.47;83.45;100865.31;695034;28;1612;-53
2021/09/14 00:47:30;;;;;;;11.77;9.77;;;;;;;14.50;82.97;100872.28;695045;28;1067;-53
2021/09/14 00:47:51;;;;;;;10.40;9.37;;;;;;;14.44;83.58;100872.38;694546;28;3868;-53
2021/09/14 00:48:11;;;;;;;10.50;9.40;;;;;;;14.43;83.23;100875.91;696880;28;4742;-52
2021/09/14 00:48:31;;;;;;;10.40;9.10;;;;;;;14.43;83.16;100870.66;694658;28;1323;-56
2021/09/14 00:48:52;;;;;;;10.30;9.30;;;;;;;14.47;82.46;100872.34;691494;28;1404;-54
2021/09/14 00:49:14;;;;;;;10.55;9.50;;;;;;;14.51;82.27;100874.03;694664;28;1198;-54
2021/09/14 00:49:35;;;;;;;10.43;9.38;;;;;;;14.52;83.12;100870.47;693247;28;1201;-55
2021/09/14 00:49:55;;;;;;;10.80;9.70;;;;;;;14.46;83.19;100874.06;693164;28;1102;-51
2021/09/14 00:50:15;;;;;;;11.47;10.27;;;;;;;14.42;83.31;100871.53;691999;28;976;-56
2021/09/14 00:50:36;;;;;;;11.17;9.90;;;;;;;14.43;82.82;100871.50;693467;28;3199;-55
2021/09/14 00:50:56;;;;;;;11.13;10.03;;;;;;;14.41;84.25;100870.69;695514;28;4507;-54
2021/09/14 00:51:17;;;;;;;11.10;9.90;;;;;;;14.40;83.17;100868.06;694891;28;1562;-54
2021/09/14 00:51:38;;;;;;;10.85;9.52;;;;;;;14.43;83.55;100868.03;691674;28;1327;-55
2021/09/14 00:51:58;;;;;;;10.73;9.63;;;;;;;14.38;84.15;100865.44;694049;28;1346;-56
2021/09/14 00:52:19;;;;;;;10.77;9.68;;;;;;;14.42;83.65;100867.13;692219;28;1136;-54
2021/09/14 00:52:39;;;;;;;11.67;10.47;;;;;;;14.38;84.15;100869.84;689776;28;1297;-54
2021/09/14 00:53:00;;;;;;;11.73;10.53;;;;;;;14.30;83.51;100873.50;688224;28;1418;-55
2021/09/14 00:53:22;;;;;;;11.48;10.32;;;;;;;14.27;83.47;100863.03;689488;28;1114;-53
2021/09/14 00:53:47;;;;;;;10.55;9.45;;;;;;;14.34;82.84;100861.13;691181;28;3495;-55
2021/09/14 00:54:18;;;;;;;10.95;9.85;;;;;;;14.40;82.93;100860.16;690410;28;4701;-56
2021/09/14 00:54:41;;;;;;;10.93;9.82;;;;;;;14.39;84.04;100861.06;691732;28;1285;-56
2021/09/14 00:55:03;;;;;;;10.60;9.50;;;;;;;14.37;84.54;100862.84;691889;28;1190;-55
2021/09/14 00:55:23;;;;;;;10.52;9.63;;;;;;;14.37;83.69;100862.84;691903;28;1387;-52
2021/09/14 00:55:44;;;;;;;10.53;9.53;;;;;;;14.35;84.08;100859.41;691917;28;1114;-62
2021/09/14 00:56:04;;;;;;;10.80;9.70;;;;;;;14.31;84.34;100858.56;694268;28;1194;-54
2021/09/14 00:56:25;;;;;;;10.85;9.73;;;;;;;14.33;83.19;100861.16;694991;28;1163;-56
2021/09/14 00:56:46;;;;;;;10.73;9.63;;;;;;;14.29;83.89;100858.59;693909;28;3637;-51
2021/09/14 00:57:06;;;;;;;10.70;9.60;;;;;;;14.33;83.26;100856.78;693541;28;4682;-54
2021/09/14 00:57:26;;;;;;;11.05;9.98;;;;;;;14.37;83.52;100858.47;695109;28;1288;-53
2021/09/14 00:57:50;;;;;;;11.03;10.00;;;;;;;14.38;84.03;100864.59;694741;28;1301;-52
2021/09/14 00:58:11;;;;;;;11.63;10.43;;;;;;;14.34;84.55;100868.16;695114;28;1178;-54
2021/09/14 00:58:31;;;;;;;11.40;10.20;;;;;;;14.29;84.04;100861.22;691410;28;1269;-54
2021/09/14 00:58:51;;;;;;;11.20;10.10;;;;;;;14.28;84.11;100858.63;691978;28;1508;-55
2021/09/14 00:59:12;;;;;;;10.38;9.38;;;;;;;14.31;83.45;100859.44;691764;28;1808;-51
2021/09/14 00:59:33;;;;;;;11.03;9.40;;;;;;;14.36;83.21;100861.09;689195;28;3212;-53
2021/09/14 00:59:53;;;;;;;11.40;10.20;;;;;;;14.38;83.26;100861.97;691480;28;3409;-55
2021/09/14 01:00:14;;;;;;;10.63;9.60;;;;;;;14.33;84.24;100864.69;690985;28;4735;-55
2021/09/14 01:00:34;;;;;;;12.00;10.03;;;;;;;14.23;84.44;100861.34;692733;28;1142;-52
2021/09/14 01:00:55;;;;;;;11.13;9.60;;;;;;;14.21;83.84;100865.75;692198;28;1373;-53
2021/09/14 01:01:15;;;;;;;10.73;9.63;;;;;;;14.24;83.70;100856.94;691818;28;1215;-52
2021/09/14 01:01:36;;;;;;;11.13;10.02;;;;;;;14.24;84.61;100863.06;694770;28;1033;-51
2021/09/14 01:01:57;;;;;;;11.25;10.15;;;;;;;14.23;84.01;100861.34;695057;28;1304;-53
2021/09/14 01:02:17;;;;;;;10.83;9.53;;;;;;;14.25;84.01;100858.69;697687;28;1538;-55
2021/09/14 01:02:37;;;;;;;10.57;9.48;;;;;;;14.27;83.35;100860.41;694282;28;3674;-55
2021/09/14 01:02:59;;;;;;;10.33;9.27;;;;;;;14.33;83.07;100863.78;693529;28;4701;-51
2021/09/14 01:03:20;;;;;;;10.57;9.52;;;;;;;14.34;84.04;100863.78;695981;28;1385;-54
2021/09/14 01:03:40;;;;;;;11.23;10.13;;;;;;;14.34;84.47;100870.81;696726;28;1556;-55
2021/09/14 01:04:01;;;;;;;10.68;9.57;;;;;;;14.33;83.50;100866.44;694627;28;1278;-52
2021/09/14 01:04:22;;;;;;;10.80;9.68;;;;;;;14.30;84.81;100855.09;694571;28;1147;-53
2021/09/14 01:04:43;;;;;;;11.52;10.32;;;;;;;14.26;84.89;100855.13;691757;28;2020;-55
2021/09/14 01:05:04;;;;;;;10.93;9.80;;;;;;;14.28;83.69;100859.47;692209;28;1254;-52
2021/09/14 01:05:24;;;;;;;10.48;9.48;;;;;;;14.34;82.96;100865.53;689096;28;3147;-52
2021/09/14 01:05:44;;;;;;;10.53;9.50;;;;;;;14.36;83.21;100861.09;691692;28;3852;-55
2021/09/14 01:06:05;;;;;;;11.00;9.90;;;;;;;14.33;84.36;100856.78;694094;28;4613;-53
2021/09/14 01:06:26;;;;;;;11.13;10.02;;;;;;;14.29;84.22;100855.97;695126;28;1553;-55
2021/09/14 01:06:46;;;;;;;10.93;9.82;;;;;;;14.26;84.50;100852.50;697325;28;1218;-55
2021/09/14 01:07:07;;;;;;;10.80;9.70;;;;;;;14.26;84.02;100856.03;694392;28;1202;-55
2021/09/14 01:07:27;;;;;;;10.80;9.70;;;;;;;14.24;84.92;100856.94;694577;28;1373;-51
2021/09/14 01:07:48;;;;;;;11.07;9.97;;;;;;;14.21;85.34;100857.00;691756;28;1424;-55
2021/09/14 01:08:09;;;;;;;11.40;10.30;;;;;;;14.19;85.17;100857.03;691955;28;1306;-54
2021/09/14 01:08:31;;;;;;;11.27;10.18;;;;;;;14.23;84.55;100860.47;692225;28;3059;-53
2021/09/14 01:08:52;;;;;;;10.90;9.90;;;;;;;14.18;84.52;100854.41;691793;28;1142;-53
2021/09/14 01:09:14;;;;;;;10.63;9.63;;;;;;;14.15;84.14;100863.22;691740;28;4775;-54
2021/09/14 01:09:36;;;;;;;10.60;9.50;;;;;;;14.21;83.73;100857.84;694460;28;1360;-55
2021/09/14 01:09:57;;;;;;;11.18;10.02;;;;;;;14.26;83.48;100848.16;691975;28;1260;-52
2021/09/14 01:10:18;;;;;;;10.82;9.73;;;;;;;14.28;84.32;100854.22;689688;28;2087;-54
2021/09/14 01:10:39;;;;;;;11.30;10.20;;;;;;;14.25;85.41;100861.31;686389;28;1211;-56
2021/09/14 01:11:04;;;;;;;11.50;10.30;;;;;;;14.23;84.69;100852.56;687083;28;1219;-52
2021/09/14 01:11:24;;;;;;;10.70;9.60;;;;;;;14.24;83.65;100852.53;687599;28;3084;-56
2021/09/14 01:11:45;;;;;;;10.90;9.73;;;;;;;14.24;84.54;100852.53;691889;28;2397;-56
2021/09/14 01:12:07;;;;;;;10.95;9.65;;;;;;;14.24;83.75;100852.53;693329;28;4946;-53
2021/09/14 01:12:27;;;;;;;11.23;10.10;;;;;;;14.28;83.50;100848.97;695731;28;1420;-57
2021/09/14 01:12:48;;;;;;;11.15;10.05;;;;;;;14.33;83.21;100855.91;693334;28;1270;-54
2021/09/14 01:13:09;;;;;;;11.18;10.07;;;;;;;14.27;84.09;100852.50;692249;28;1235;-56
2021/09/14 01:13:30;;;;;;;11.82;10.57;;;;;;;14.23;84.04;100850.84;689726;28;1318;-55
2021/09/14 01:14:03;;;;;;;11.55;10.30;;;;;;;14.21;84.46;100852.59;693439;28;1358;-56
2021/09/14 01:14:23;;;;;;;11.07;9.98;;;;;;;14.27;83.32;100856.88;694285;28;3316;-56
2021/09/14 01:14:55;;;;;;;11.02;9.93;;;;;;;14.34;82.83;100848.00;696057;28;3991;-53
2021/09/14 01:15:15;;;;;;;10.85;9.75;;;;;;;14.37;82.70;100858.47;693018;28;4474;-51
2021/09/14 01:15:36;;;;;;;10.93;9.83;;;;;;;14.40;82.43;100854.91;693631;28;993;-53
2021/09/14 01:16:03;;;;;;;11.50;10.18;;;;;;;14.37;83.44;100854.97;693449;28;1120;-52
2021/09/14 01:16:24;;;;;;;10.88;9.77;;;;;;;14.33;83.62;100858.53;691590;28;1076;-54
2021/09/14 01:16:44;;;;;;;11.13;10.00;;;;;;;14.36;82.72;100848.84;688519;28;1409;-55
2021/09/14 01:17:05;;;;;;;11.35;9.90;;;;;;;14.40;82.31;100852.28;685197;28;1346;-55
2021/09/14 01:17:25;;;;;;;12.33;9.73;;;;;;;14.42;82.29;100853.97;688962;28;3446;-56
2021/09/14 01:17:46;;;;;;;11.70;10.00;;;;;;;14.41;82.73;100848.75;691469;28;1234;-54
2021/09/14 01:18:06;;;;;;;10.90;9.80;;;;;;;14.38;83.43;100854.06;690952;28;5051;-54
2021/09/14 01:18:27;;;;;;;10.97;9.83;;;;;;;14.32;83.24;100855.06;688795;28;1139;-51
2021/09/14 01:18:47;;;;;;;11.25;10.07;;;;;;;14.28;83.74;100850.75;690815;28;1048;-55
2021/09/14 01:19:10;;;;;;;11.27;10.10;;;;;;;14.24;83.69;100847.28;694421;28;1225;-52
2021/09/14 01:19:30;;;;;;;10.23;9.23;;;;;;;14.30;83.00;100847.19;688990;28;1358;-54
2021/09/14 01:19:51;;;;;;;10.13;9.13;;;;;;;14.36;82.73;100855.84;689045;28;1510;-54
2021/09/14 01:20:12;;;;;;;10.20;9.20;;;;;;;14.40;82.46;100849.63;686574;28;3568;-55
2021/09/14 01:20:32;;;;;;;10.50;9.50;;;;;;;14.39;83.00;100855.81;686531;28;3672;-51
2021/09/14 01:20:53;;;;;;;10.73;9.63;;;;;;;14.39;82.81;100845.31;686463;28;1200;-53
2021/09/14 01:21:20;;;;;;;11.23;10.03;;;;;;;14.33;83.68;100850.66;690434;28;4946;-56
2021/09/14 01:21:40;;;;;;;11.20;9.80;;;;;;;14.26;83.37;100847.25;695465;28;1285;-54
2021/09/14 01:22:02;;;;;;;11.00;9.90;;;;;;;14.33;83.24;100855.91;695405;28;1607;-55
2021/09/14 01:22:27;;;;;;;10.73;9.73;;;;;;;14.35;82.44;100855.00;696853;28;1635;-55
2021/09/14 01:22:47;;;;;;;11.13;9.93;;;;;;;14.38;82.18;100849.66;692439;28;1505;-56
2021/09/14 01:23:08;;;;;;;10.77;9.77;;;;;;;14.43;82.14;100847.84;692967;28;1092;-53
2021/09/14 01:23:29;;;;;;;10.18;9.18;;;;;;;14.47;81.90;100851.28;689435;28;3554;-51
2021/09/14 01:23:53;;;;;;;10.40;9.40;;;;;;;14.48;81.61;100846.00;686977;28;1356;-56
2021/09/14 01:24:14;;;;;;;10.95;9.88;;;;;;;14.50;81.63;100845.97;687509;28;4410;-51
2021/09/14 01:24:42;;;;;;;11.10;10.02;;;;;;;14.52;81.78;100849.44;688861;28;1981;-56
2021/09/14 01:25:14;;;;;;;11.07;9.90;;;;;;;14.44;82.69;100851.31;692917;28;2081;-55
2021/09/14 01:25:36;;;;;;;10.60;9.50;;;;;;;14.46;82.08;100846.91;692461;28;1351;-53
2021/09/14 01:25:59;;;;;;;10.82;9.73;;;;;;;14.50;81.75;100853.00;691159;28;1554;-53
2021/09/14 01:26:22;;;;;;;10.80;9.70;;;;;;;14.51;81.45;100852.97;691764;28;3328;-55
2021/09/14 01:26:42;;;;;;;11.05;9.85;;;;;;;14.54;81.35;100849.38;688839;28;1486;-55
2021/09/14 01:27:06;;;;;;;11.00;9.75;;;;;;;14.53;81.81;100858.22;690360;28;4473;-54
2021/09/14 01:27:28;;;;;;;11.10;9.88;;;;;;;14.54;81.44;100855.53;689562;28;1302;-55
2021/09/14 01:27:51;;;;;;;10.70;9.52;;;;;;;14.54;81.33;100852.91;692404;28;1593;-53
2021/09/14 01:28:19;;;;;;;10.27;9.27;;;;;;;14.55;81.30;100854.66;689101;28;1250;-51
2021/09/14 01:28:40;;;;;;;10.00;9.00;;;;;;;14.57;81.48;100852.84;688828;28;1621;-54
2021/09/14 01:29:11;;;;;;;10.40;9.40;;;;;;;14.59;81.01;100852.81;689111;28;1503;-50
2021/09/14 01:30:20;;;;;;;10.15;9.15;;;;;;;14.66;80.71;100858.88;691030;28;5186;-55
2021/09/14 01:30:41;;;;;;;10.45;9.40;;;;;;;14.67;80.76;100860.63;691034;28;1031;-56
2021/09/14 01:31:04;;;;;;;10.77;9.60;;;;;;;14.68;80.76;100862.34;693838;28;1253;-57
2021/09/14 01:31:25;;;;;;;10.77;9.25;;;;;;;14.66;81.33;100857.09;694818;28;1416;-54
2021/09/14 01:31:45;;;;;;;10.60;9.50;;;;;;;14.58;82.14;100857.22;692486;28;1270;-53
2021/09/14 01:32:06;;;;;;;10.90;9.70;;;;;;;14.57;81.29;100863.38;694924;28;4034;-52
2021/09/14 01:32:28;;;;;;;10.20;9.20;;;;;;;14.58;81.02;100854.59;690786;28;3580;-54
2021/09/14 01:32:52;;;;;;;10.52;9.43;;;;;;;14.59;80.83;100858.06;688650;28;1601;-56
2021/09/14 01:33:15;;;;;;;10.23;9.23;;;;;;;14.60;80.90;100865.09;691488;28;4492;-51
2021/09/14 01:33:35;;;;;;;10.30;9.30;;;;;;;14.60;80.50;100855.41;686169;28;1263;-53
2021/09/14 01:33:56;;;;;;;10.45;9.35;;;;;;;14.56;81.86;100859.00;689044;28;1300;-54
2021/09/14 01:34:18;;;;;;;10.55;9.45;;;;;;;14.54;81.89;100860.81;695638;28;1273;-55
2021/09/14 01:34:39;;;;;;;10.65;9.55;;;;;;;14.56;81.18;100863.41;695286;28;1325;-56
2021/09/14 01:35:30;;;;;;;10.63;9.53;;;;;;;14.59;80.79;100858.97;696264;28;1344;-52
2021/09/14 01:35:53;;;;;;;10.25;9.15;;;;;;;14.61;80.78;100858.94;688814;28;1608;-52
2021/09/14 01:36:14;;;;;;;10.32;9.18;;;;;;;14.62;80.79;100858.00;689256;28;4473;-56
2021/09/14 01:36:36;;;;;;;10.05;9.00;;;;;;;14.60;81.23;100865.94;691447;28;1284;-55
2021/09/14 01:36:56;;;;;;;10.53;9.43;;;;;;;14.59;81.25;100861.59;692091;28;1503;-53
2021/09/14 01:37:17;;;;;;;10.50;9.50;;;;;;;14.61;80.72;100862.41;694949;28;1338;-51
2021/09/14 01:37:38;;;;;;;10.77;9.68;;;;;;;14.59;80.76;100858.97;691667;28;1441;-53
2021/09/14 01:37:59;;;;;;;10.75;9.70;;;;;;;14.60;80.66;100865.94;692434;28;1641;-54
2021/09/14 01:38:22;;;;;;;10.88;9.80;;;;;;;14.58;81.60;100861.59;694608;28;3627;-53
2021/09/14 01:38:43;;;;;;;10.73;9.73;;;;;;;14.50;81.95;100864.38;694920;28;1339;-54
2021/09/14 01:39:03;;;;;;;10.50;9.50;;;;;;;14.41;82.22;100861.91;692718;28;5003;-53
2021/09/14 01:39:24;;;;;;;10.25;9.25;;;;;;;14.34;82.71;100866.41;694441;28;1689;-51
2021/09/14 01:39:46;;;;;;;10.88;9.77;;;;;;;14.23;83.09;100861.34;694811;28;1395;-54
2021/09/14 01:40:07;;;;;;;10.70;9.60;;;;;;;14.26;82.57;100863.03;691933;28;1181;-55
2021/09/14 01:40:28;;;;;;;10.10;9.10;;;;;;;14.32;82.13;100865.56;691978;28;1148;-52